Mary Bennett — WDC4592 — position and weather

sailwx.info

Track history (hours):
 
Tides and Currents Weather Stations Pressure Air Temp Water Temp Dewpoint Dewpoint Depression Visibility Wind Speed Wind Dir Waves Ship Positions

Mary Bennett

Owner: Savannah Marine Services, Savannah, GA. More information available from US FCC via Universal Licensing System and Coast Guard Vessel Documentation Center.

Last reported at 2015-Jul-30 01:33 UTC. Time now 2015-Jul-30 02:00 UTC.
Position N 32°09' W 081°09'.

Length 21 m; draft 2.3 m.

Type: Tug. MMSI: 367027140.

Date/timePositionNaut miles runAvg speedWind from/ knotsBaromVisibWave heightAir tempDewpointWater temp
2015-Jul-30 01:33N 32°09' W 081°09'0 0.1
2015-Jul-30 00:33N 32°09' W 081°08'0 0.0
2015-Jul-29 23:34N 32°09' W 081°08'0 0.1
2015-Jul-29 22:33N 32°09' W 081°09'0 0.0
2015-Jul-29 21:34N 32°09' W 081°09'0 0.0
2015-Jul-29 20:34N 32°09' W 081°09'0 0.0
2015-Jul-29 19:33N 32°09' W 081°09'0 0.1
2015-Jul-29 18:34N 32°09' W 081°08'0 0.1
2015-Jul-29 17:34N 32°09' W 081°08'0 0.1
2015-Jul-29 16:34N 32°09' W 081°08'0 0.1
2015-Jul-29 15:34N 32°09' W 081°09'0 0.0
2015-Jul-29 14:34N 32°09' W 081°09'0 0.2
2015-Jul-29 13:34N 32°09' W 081°09'0 0.1
2015-Jul-29 12:34N 32°09' W 081°09'0 0.1
2015-Jul-29 11:33N 32°09' W 081°09'0 0.1
2015-Jul-29 10:33N 32°09' W 081°09'0 0.1
2015-Jul-29 09:34N 32°09' W 081°09'0 0.1
2015-Jul-29 08:33N 32°09' W 081°09'0 0.1
2015-Jul-29 07:33N 32°09' W 081°09'0 0.2
2015-Jul-29 06:34N 32°09' W 081°09'0 0.1
2015-Jul-29 05:33N 32°09' W 081°09'0 0.0
2015-Jul-29 04:33N 32°09' W 081°09'0 0.0
2015-Jul-29 03:34N 32°09' W 081°09'0 0.0
2015-Jul-29 02:34N 32°09' W 081°09'0 0.1
2015-Jul-29 01:33N 32°09' W 081°09'0 0.0
2015-Jul-29 00:33N 32°09' W 081°09'0 0.1
2015-Jul-28 23:34N 32°09' W 081°09'0 0.1
2015-Jul-28 22:34N 32°09' W 081°09'0 0.2
2015-Jul-28 21:33N 32°09' W 081°08'0 0.2
2015-Jul-28 20:34N 32°09' W 081°09'0 0.1
2015-Jul-28 19:33N 32°09' W 081°09'0 0.1
2015-Jul-28 18:34N 32°09' W 081°09'0 0.1
2015-Jul-28 17:34N 32°09' W 081°08'0 0.0
2015-Jul-28 16:33N 32°09' W 081°08'0 0.2
2015-Jul-28 15:34N 32°09' W 081°09'0 0.0
2015-Jul-28 14:34N 32°09' W 081°09'0 0.1
2015-Jul-28 13:34N 32°09' W 081°09'2 0.2
2015-Jul-27 23:04N 32°06' W 081°07'2 3.2
2015-Jul-27 22:30N 32°05' W 081°06'0 0.1
2015-Jul-27 21:33N 32°05' W 081°06'0 0.0
2015-Jul-27 20:33N 32°05' W 081°06'0 0.1
2015-Jul-27 19:33N 32°05' W 081°06'2 1.8
2015-Jul-27 18:33N 32°06' W 081°07'0 0.0
2015-Jul-26 02:23N 32°07' W 081°07'1 1.6
2015-Jul-26 01:33N 32°06' W 081°06'0 0.0
2015-Jul-26 00:33N 32°06' W 081°06'1 0.0
2015-Jul-25 04:33N 32°05' W 081°06'3 1.0
2015-Jul-25 01:17N 32°08' W 081°08'3 3.7
2015-Jul-25 00:33N 32°06' W 081°06'0 0.3
2015-Jul-24 23:33N 32°06' W 081°07'0 0.0
2015-Jul-24 22:33N 32°06' W 081°07'0 0.0
2015-Jul-24 21:30N 32°06' W 081°07'  
Track history (hours):
 
Tides and Currents Weather Stations Pressure Air Temp Water Temp Dewpoint Dewpoint Depression Visibility Wind Speed Wind Dir Waves Ship Positions

Mary Bennett

Owner: Savannah Marine Services, Savannah, GA. More information available from US FCC via Universal Licensing System and Coast Guard Vessel Documentation Center.

Last reported at 2015-Jul-30 01:33 UTC. Time now 2015-Jul-30 02:00 UTC.
Position N 32°09' W 081°09'.

Length 21 m; draft 2.3 m.

Type: Tug. MMSI: 367027140.

Date/timePositionNaut miles runAvg speedWind from/ knotsBaromVisibWave heightAir tempDewpointWater temp
2015-Jul-30 01:33N 32°09' W 081°09'0 0.1
2015-Jul-30 00:33N 32°09' W 081°08'0 0.0
2015-Jul-29 23:34N 32°09' W 081°08'0 0.1
2015-Jul-29 22:33N 32°09' W 081°09'0 0.0
2015-Jul-29 21:34N 32°09' W 081°09'0 0.0
2015-Jul-29 20:34N 32°09' W 081°09'0 0.0
2015-Jul-29 19:33N 32°09' W 081°09'0 0.1
2015-Jul-29 18:34N 32°09' W 081°08'0 0.1
2015-Jul-29 17:34N 32°09' W 081°08'0 0.1
2015-Jul-29 16:34N 32°09' W 081°08'0 0.1
2015-Jul-29 15:34N 32°09' W 081°09'0 0.0
2015-Jul-29 14:34N 32°09' W 081°09'0 0.2
2015-Jul-29 13:34N 32°09' W 081°09'0 0.1
2015-Jul-29 12:34N 32°09' W 081°09'0 0.1
2015-Jul-29 11:33N 32°09' W 081°09'0 0.1
2015-Jul-29 10:33N 32°09' W 081°09'0 0.1
2015-Jul-29 09:34N 32°09' W 081°09'0 0.1
2015-Jul-29 08:33N 32°09' W 081°09'0 0.1
2015-Jul-29 07:33N 32°09' W 081°09'0 0.2
2015-Jul-29 06:34N 32°09' W 081°09'0 0.1
2015-Jul-29 05:33N 32°09' W 081°09'0 0.0
2015-Jul-29 04:33N 32°09' W 081°09'0 0.0
2015-Jul-29 03:34N 32°09' W 081°09'0 0.0
2015-Jul-29 02:34N 32°09' W 081°09'0 0.1
2015-Jul-29 01:33N 32°09' W 081°09'0 0.0
2015-Jul-29 00:33N 32°09' W 081°09'0 0.1
2015-Jul-28 23:34N 32°09' W 081°09'0 0.1
2015-Jul-28 22:34N 32°09' W 081°09'0 0.2
2015-Jul-28 21:33N 32°09' W 081°08'0 0.2
2015-Jul-28 20:34N 32°09' W 081°09'0 0.1
2015-Jul-28 19:33N 32°09' W 081°09'0 0.1
2015-Jul-28 18:34N 32°09' W 081°09'0 0.1
2015-Jul-28 17:34N 32°09' W 081°08'0 0.0
2015-Jul-28 16:33N 32°09' W 081°08'0 0.2
2015-Jul-28 15:34N 32°09' W 081°09'0 0.0
2015-Jul-28 14:34N 32°09' W 081°09'0 0.1
2015-Jul-28 13:34N 32°09' W 081°09'2 0.2
2015-Jul-27 23:04N 32°06' W 081°07'2 3.2
2015-Jul-27 22:30N 32°05' W 081°06'0 0.1
2015-Jul-27 21:33N 32°05' W 081°06'0 0.0
2015-Jul-27 20:33N 32°05' W 081°06'0 0.1
2015-Jul-27 19:33N 32°05' W 081°06'2 1.8
2015-Jul-27 18:33N 32°06' W 081°07'0 0.0
2015-Jul-26 02:23N 32°07' W 081°07'1 1.6
2015-Jul-26 01:33N 32°06' W 081°06'0 0.0
2015-Jul-26 00:33N 32°06' W 081°06'1 0.0
2015-Jul-25 04:33N 32°05' W 081°06'3 1.0
2015-Jul-25 01:17N 32°08' W 081°08'3 3.7
2015-Jul-25 00:33N 32°06' W 081°06'0 0.3
2015-Jul-24 23:33N 32°06' W 081°07'0 0.0
2015-Jul-24 22:33N 32°06' W 081°07'0 0.0
2015-Jul-24 21:30N 32°06' W 081°07'  

Dump ship's entire track history